Time;durP1;ratioP1;P1;durP2;ratioP2;P2;SDS_P1;SDS_P2;PMS_P1;PMS_P2;Temp;Humidity;BMP_temperature;BMP_pressure;BME280_temperature;BME280_humidity;BME280_pressure;Samples;Min_cycle;Max_cycle;Signal;HPM_P1;HPM_P2
2022/03/23 00:00:43;;;;;;;;;;;;;;;7.99;50.75;102549.66;5064694;28;19940;-75
2022/03/23 00:03:13;;;;;;;;;;;;;;;8.05;50.57;102538.53;5055280;28;19928;-82
2022/03/23 00:05:41;;;;;;;;;;;;;;;7.98;50.45;102539.28;5048267;28;19924;-82
2022/03/23 00:08:07;;;;;;;;;;;;;;;7.79;50.79;102543.22;5047750;28;19926;-80
2022/03/23 00:10:32;;;;;;;;;;;;;;;7.86;50.10;102539.03;5052209;28;20528;-82
2022/03/23 00:12:58;;;;;;;;;;;;;;;7.90;49.84;102546.91;5025197;28;19912;-75
2022/03/23 00:15:23;;;;;;;;;;;;;;;7.81;49.73;102541.56;5052764;28;21497;-80
2022/03/23 00:17:50;;;;;;;;;;;;;;;7.91;50.03;102545.19;5054559;28;19928;-80
2022/03/23 00:20:15;;;;;;;;;;;;;;;7.73;51.15;102547.44;5056775;28;19921;-80
2022/03/23 00:22:41;;;;;;;;;;;;;;;7.85;49.88;102543.34;5062000;28;19975;-80
2022/03/23 00:25:07;;;;;;;;;;;;;;;7.88;50.16;102539.97;5051862;28;20012;-82
2022/03/23 00:27:32;;;;;;;;;;;;;;;7.86;49.72;102542.50;5045653;28;19929;-82
2022/03/23 00:29:58;;;;;;;;;;;;;;;7.85;49.86;102545.94;5040640;28;19936;-82
2022/03/23 00:32:23;;;;;;;;;;;;;;;7.76;49.73;102547.50;5062021;28;19917;-76
2022/03/23 00:34:48;;;;;;;;;;;;;;;7.65;49.88;102542.97;5053433;28;19917;-76
2022/03/23 00:37:14;;;;;;;;;;;;;;;7.80;50.43;102547.56;5050083;28;19921;-76
2022/03/23 00:39:39;;;;;;;;;;;;;;;7.68;50.49;102547.34;5044377;28;19921;-82
2022/03/23 00:42:04;;;;;;;;;;;;;;;7.70;50.50;102543.94;5042790;28;20007;-81
2022/03/23 00:44:30;;;;;;;;;;;;;;;7.73;50.11;102543.16;5053033;28;19917;-81
2022/03/23 00:46:55;;;;;;;;;;;;;;;7.72;49.97;102543.97;5050356;28;20017;-82
2022/03/23 00:49:20;;;;;;;;;;;;;;;7.30;50.86;102546.59;5036814;28;20476;-81
2022/03/23 00:51:46;;;;;;;;;;;;;;;7.39;49.70;102541.59;5055844;28;19921;-81
2022/03/23 00:54:11;;;;;;;;;;;;;;;7.47;50.36;102542.63;5023332;28;19921;-80
2022/03/23 00:56:37;;;;;;;;;;;;;;;7.59;50.75;102542.84;5029491;28;19921;-80
2022/03/23 00:59:03;;;;;;;;;;;;;;;7.68;50.43;102545.63;5048896;28;20470;-82
2022/03/23 01:01:29;;;;;;;;;;;;;;;7.57;50.69;102546.25;5055081;28;19962;-82
2022/03/23 01:03:54;;;;;;;;;;;;;;;7.47;50.41;102550.38;5043405;28;19918;-82
2022/03/23 01:06:20;;;;;;;;;;;;;;;7.28;50.26;102549.97;5033907;28;20004;-82
2022/03/23 01:08:45;;;;;;;;;;;;;;;7.56;50.80;102550.56;5052195;28;19924;-80
2022/03/23 01:11:10;;;;;;;;;;;;;;;7.29;50.68;102550.00;5040331;28;19916;-80
2022/03/23 01:13:36;;;;;;;;;;;;;;;7.57;50.37;102543.69;5055216;28;20016;-82
2022/03/23 01:16:01;;;;;;;;;;;;;;;7.59;50.39;102548.03;5051277;28;19917;-76
2022/03/23 01:18:27;;;;;;;;;;;;;;;7.59;51.51;102548.03;5057348;28;20312;-81
2022/03/23 01:20:52;;;;;;;;;;;;;;;7.55;50.38;102547.97;5044246;28;19925;-82
2022/03/23 01:23:17;;;;;;;;;;;;;;;7.49;50.12;102550.41;5046872;28;20075;-80
2022/03/23 01:25:43;;;;;;;;;;;;;;;7.47;51.24;102541.75;5035601;28;19921;-80
2022/03/23 01:28:09;;;;;;;;;;;;;;;7.54;51.05;102547.09;5059683;28;20297;-80
2022/03/23 01:30:35;;;;;;;;;;;;;;;7.58;51.27;102548.88;5033430;28;19931;-80
2022/03/23 01:33:01;;;;;;;;;;;;;;;7.23;51.15;102552.44;5051381;28;19922;-80
2022/03/23 01:35:26;;;;;;;;;;;;;;;7.49;50.88;102540.97;5055716;28;19932;-80
2022/03/23 01:37:51;;;;;;;;;;;;;;;7.62;50.68;102542.91;5047656;28;19975;-80
2022/03/23 01:40:17;;;;;;;;;;;;;;;7.55;51.87;102547.97;5071636;28;20515;-80
2022/03/23 01:42:42;;;;;;;;;;;;;;;7.57;51.24;102543.69;5059669;28;19917;-80
2022/03/23 01:45:08;;;;;;;;;;;;;;;7.64;50.64;102545.56;5041032;28;19921;-80
2022/03/23 01:47:34;;;;;;;;;;;;;;;7.54;51.75;102536.72;5060873;28;19975;-80
2022/03/23 01:49:59;;;;;;;;;;;;;;;7.52;51.34;102542.72;5070875;28;20378;-75
2022/03/23 01:52:26;;;;;;;;;;;;;;;7.51;52.01;102534.09;5062192;28;19928;-75
2022/03/23 01:54:52;;;;;;;;;;;;;;;7.52;51.25;102546.16;5059575;28;19976;-75
2022/03/23 01:57:18;;;;;;;;;;;;;;;7.41;50.50;102537.31;5059999;28;20015;-75
2022/03/23 01:59:44;;;;;;;;;;;;;;;7.32;51.08;102544.00;5040016;28;19924;-75
2022/03/23 02:02:09;;;;;;;;;;;;;;;7.14;50.97;102537.63;5051307;28;19921;-80
2022/03/23 02:04:35;;;;;;;;;;;;;;;7.21;51.62;102542.94;5049664;28;19933;-80
2022/03/23 02:07:00;;;;;;;;;;;;;;;7.34;51.26;102539.78;5051514;28;19935;-80
2022/03/23 02:09:26;;;;;;;;;;;;;;;7.36;51.39;102531.19;5056581;28;19931;-80
2022/03/23 02:11:52;;;;;;;;;;;;;;;7.37;51.54;102539.84;5054296;28;19925;-80
2022/03/23 02:14:18;;;;;;;;;;;;;;;6.97;51.21;102538.09;5048751;28;19932;-82
2022/03/23 02:16:44;;;;;;;;;;;;;;;7.17;51.54;102541.13;5048227;28;20052;-82
2022/03/23 02:19:10;;;;;;;;;;;;;;;7.34;51.40;102537.19;5044840;28;19967;-76
2022/03/23 02:21:36;;;;;;;;;;;;;;;7.42;51.38;102539.06;5043934;28;20437;-76
2022/03/23 02:24:04;;;;;;;;;;;;;;;7.16;51.29;102531.63;5046178;28;20015;-79
2022/03/23 02:26:30;;;;;;;;;;;;;;;7.30;51.14;102538.81;5034841;28;19922;-79
2022/03/23 02:28:56;;;;;;;;;;;;;;;7.35;50.26;102523.41;5053822;28;19929;-79
2022/03/23 02:31:22;;;;;;;;;;;;;;;7.36;51.33;102536.38;5039692;28;20003;-79
2022/03/23 02:33:47;;;;;;;;;;;;;;;7.26;50.33;102538.72;5040528;28;20007;-80
2022/03/23 02:36:12;;;;;;;;;;;;;;;7.33;50.50;102536.31;5043677;28;19917;-80
2022/03/23 02:38:37;;;;;;;;;;;;;;;7.01;50.41;102533.06;5047774;28;19964;-80
2022/03/23 02:41:03;;;;;;;;;;;;;;;7.09;50.82;102531.50;5047929;28;19940;-76
2022/03/23 02:43:29;;;;;;;;;;;;;;;7.15;50.79;102533.34;5048724;28;19913;-82
2022/03/23 02:45:54;;;;;;;;;;;;;;;7.13;51.17;102522.09;5045051;28;19909;-82
2022/03/23 02:48:19;;;;;;;;;;;;;;;7.09;51.03;102523.75;5048570;28;19928;-82
2022/03/23 02:50:44;;;;;;;;;;;;;;;7.18;50.46;102522.19;5049486;28;19924;-80
2022/03/23 03:01:54;;;;;;;;;;;;;;;7.08;50.47;102522.00;5042190;28;20445;-82
2022/03/23 03:04:23;;;;;;;;;;;;;;;7.03;51.07;102525.31;5047239;28;19913;-81
2022/03/23 03:06:49;;;;;;;;;;;;;;;6.99;50.93;102526.09;5035446;28;19927;-75
2022/03/23 03:09:19;;;;;;;;;;;;;;;7.12;50.29;102528.09;5046105;28;19925;-76
2022/03/23 03:11:45;;;;;;;;;;;;;;;7.02;50.90;102537.34;5052160;28;20067;-75
2022/03/23 03:14:10;;;;;;;;;;;;;;;6.98;50.77;102532.13;5048709;28;20020;-82
2022/03/23 03:16:36;;;;;;;;;;;;;;;7.09;49.78;102536.66;5044264;28;19928;-81
2022/03/23 03:19:04;;;;;;;;;;;;;;;7.12;50.18;102535.84;5057419;28;20254;-82
2022/03/23 03:21:30;;;;;;;;;;;;;;;7.04;50.26;102533.13;5050951;28;19921;-75
2022/03/23 03:23:55;;;;;;;;;;;;;;;7.14;50.78;102532.47;5053173;28;20084;-75
2022/03/23 03:26:21;;;;;;;;;;;;;;;7.08;49.62;102539.19;5054152;28;19920;-80
2022/03/23 03:28:47;;;;;;;;;;;;;;;6.92;50.33;102535.44;5042390;28;20015;-80
2022/03/23 03:34:15;;;;;;;;;;;;;;;7.09;49.70;102539.25;5049456;28;20075;-80
2022/03/23 03:36:41;;;;;;;;;;;;;;;6.88;49.91;102533.63;5052688;28;20443;-80
2022/03/23 03:39:06;;;;;;;;;;;;;;;7.06;49.81;102539.19;5046000;28;19920;-80
2022/03/23 03:41:32;;;;;;;;;;;;;;;6.99;50.67;102532.13;5055496;28;20352;-80
2022/03/23 03:43:57;;;;;;;;;;;;;;;6.90;50.13;102531.06;5033459;28;19958;-79
2022/03/23 03:46:22;;;;;;;;;;;;;;;6.80;50.47;102536.88;5045863;28;20015;-79
2022/03/23 03:48:48;;;;;;;;;;;;;;;6.85;50.70;102540.41;5045044;28;20026;-80
2022/03/23 03:51:13;;;;;;;;;;;;;;;6.92;49.73;102538.03;5052518;28;19924;-80
2022/03/23 03:53:39;;;;;;;;;;;;;;;6.89;50.13;102540.53;5045814;28;20381;-80
2022/03/23 03:56:04;;;;;;;;;;;;;;;7.00;50.69;102538.16;5050997;28;19943;-80
2022/03/23 03:58:29;;;;;;;;;;;;;;;7.00;50.63;102539.06;5049735;28;19916;-80
2022/03/23 04:00:55;;;;;;;;;;;;;;;6.91;50.22;102546.59;5047564;28;20538;-82
2022/03/23 04:03:20;;;;;;;;;;;;;;;6.91;50.29;102541.44;5056169;28;20372;-80
2022/03/23 04:05:46;;;;;;;;;;;;;;;6.97;49.80;102540.69;5058646;28;19928;-79
2022/03/23 04:08:11;;;;;;;;;;;;;;;6.95;50.09;102548.41;5047401;28;19936;-79
2022/03/23 04:10:37;;;;;;;;;;;;;;;6.88;50.23;102543.94;5046326;28;20435;-79
2022/03/23 04:13:02;;;;;;;;;;;;;;;6.83;49.52;102548.16;5053410;28;20358;-80
2022/03/23 04:15:28;;;;;;;;;;;;;;;6.96;49.69;102541.56;5031602;28;19925;-80
2022/03/23 04:17:54;;;;;;;;;;;;;;;6.87;49.27;102546.50;5045145;28;20015;-80
2022/03/23 04:20:19;;;;;;;;;;;;;;;6.88;50.26;102545.66;5036599;28;20196;-80
2022/03/23 04:22:44;;;;;;;;;;;;;;;6.85;50.96;102556.78;5052354;28;20562;-80
2022/03/23 04:25:11;;;;;;;;;;;;;;;6.83;50.65;102553.31;5057303;28;20000;-80
2022/03/23 04:27:46;;;;;;;;;;;;;;;6.89;50.56;102555.16;5049432;28;19925;-79
2022/03/23 04:30:12;;;;;;;;;;;;;;;6.87;50.23;102555.09;5049392;28;19980;-79
2022/03/23 04:32:38;;;;;;;;;;;;;;;6.96;48.92;102562.22;5048573;28;19959;-80
2022/03/23 04:35:04;;;;;;;;;;;;;;;6.52;50.74;102562.03;5044549;28;20274;-75
2022/03/23 04:37:30;;;;;;;;;;;;;;;6.67;50.73;102561.53;5052546;28;19916;-75
2022/03/23 04:39:55;;;;;;;;;;;;;;;6.37;51.56;102564.22;5050291;28;19917;-75
2022/03/23 04:42:20;;;;;;;;;;;;;;;6.66;50.85;102566.66;5053842;28;20389;-79
2022/03/23 04:44:46;;;;;;;;;;;;;;;6.65;50.91;102567.50;5045765;28;19920;-79
2022/03/23 04:47:11;;;;;;;;;;;;;;;6.79;50.90;102569.56;5036865;28;20278;-75
2022/03/23 04:49:36;;;;;;;;;;;;;;;6.79;50.97;102573.84;5054039;28;19975;-80
2022/03/23 04:52:02;;;;;;;;;;;;;;;6.65;50.74;102565.78;5058490;28;19916;-80
2022/03/23 04:54:28;;;;;;;;;;;;;;;6.70;50.42;102568.47;5055392;28;19952;-80
2022/03/23 04:56:53;;;;;;;;;;;;;;;6.71;50.82;102575.41;5049665;28;19917;-80
2022/03/23 04:59:19;;;;;;;;;;;;;;;6.50;50.55;102571.47;5048672;28;19920;-80
2022/03/23 05:01:44;;;;;;;;;;;;;;;6.54;50.60;102575.84;5039881;28;20417;-79
2022/03/23 05:04:09;;;;;;;;;;;;;;;6.70;51.39;102577.09;5054493;28;20400;-79
2022/03/23 05:06:34;;;;;;;;;;;;;;;6.72;51.22;102575.44;5059174;28;19924;-80
2022/03/23 05:09:00;;;;;;;;;;;;;;;6.60;49.86;102574.28;5051043;28;19933;-80
2022/03/23 05:11:25;;;;;;;;;;;;;;;6.56;51.56;102581.94;5056700;28;19921;-82
2022/03/23 05:13:50;;;;;;;;;;;;;;;6.65;51.41;102577.81;5052366;28;20067;-80
2022/03/23 05:16:18;;;;;;;;;;;;;;;6.68;51.15;102583.06;5050604;28;19940;-80
2022/03/23 05:18:43;;;;;;;;;;;;;;;6.52;52.10;102580.13;5053944;28;19979;-81
2022/03/23 05:21:08;;;;;;;;;;;;;;;6.61;51.35;102581.16;5051720;28;19963;-76
2022/03/23 05:23:34;;;;;;;;;;;;;;;6.56;52.08;102581.94;5049556;28;20389;-75
2022/03/23 05:26:00;;;;;;;;;;;;;;;6.64;51.10;102574.38;5056408;28;20006;-80
2022/03/23 05:28:26;;;;;;;;;;;;;;;6.55;51.00;102581.88;5061364;28;19920;-81
2022/03/23 05:30:51;;;;;;;;;;;;;;;6.50;50.80;102579.22;5064559;28;19975;-81
2022/03/23 05:33:16;;;;;;;;;;;;;;;6.50;50.95;102584.38;5039976;28;20347;-80
2022/03/23 05:35:41;;;;;;;;;;;;;;;6.58;50.65;102581.97;5056445;28;20019;-80
2022/03/23 05:38:07;;;;;;;;;;;;;;;6.47;51.49;102586.88;5048143;28;19920;-80
2022/03/23 05:40:32;;;;;;;;;;;;;;;6.12;52.11;102581.63;5059472;28;19956;-79
2022/03/23 05:42:58;;;;;;;;;;;;;;;6.44;51.59;102585.91;5049526;28;19924;-80
2022/03/23 05:45:23;;;;;;;;;;;;;;;6.39;51.63;102588.38;5048985;28;19924;-80
2022/03/23 05:47:52;;;;;;;;;;;;;;;6.32;51.87;102590.75;5033304;28;19928;-80
2022/03/23 05:50:17;;;;;;;;;;;;;;;6.52;51.93;102589.56;5053423;28;19951;-75
2022/03/23 05:52:43;;;;;;;;;;;;;;;6.58;51.28;102593.16;5053698;28;20353;-75
2022/03/23 05:55:09;;;;;;;;;;;;;;;6.37;51.02;102599.47;5046567;28;19939;-75
2022/03/23 05:57:34;;;;;;;;;;;;;;;6.44;51.51;102591.06;5048611;28;19975;-75
2022/03/23 05:59:59;;;;;;;;;;;;;;;6.50;52.04;102592.13;5046519;28;20597;-75
2022/03/23 06:02:25;;;;;;;;;;;;;;;6.60;52.29;102595.81;5042789;28;19928;-75
2022/03/23 06:04:50;;;;;;;;;;;;;;;6.57;52.16;102593.16;5043646;28;20008;-75
2022/03/23 06:07:15;;;;;;;;;;;;;;;6.52;52.33;102594.72;5057110;28;19966;-76
2022/03/23 06:09:41;;;;;;;;;;;;;;;6.57;52.24;102595.72;5045336;28;19925;-80
2022/03/23 06:12:07;;;;;;;;;;;;;;;6.50;52.29;102599.88;5050178;28;20313;-81
2022/03/23 06:14:34;;;;;;;;;;;;;;;6.51;52.65;102590.41;5051185;28;19924;-80
2022/03/23 06:16:59;;;;;;;;;;;;;;;6.57;52.09;102594.00;5059113;28;19924;-80
2022/03/23 06:19:24;;;;;;;;;;;;;;;6.57;53.25;102594.00;5057694;28;20050;-81
2022/03/23 06:21:50;;;;;;;;;;;;;;;6.62;52.28;102596.72;5056239;28;19913;-81
2022/03/23 06:24:15;;;;;;;;;;;;;;;6.50;52.95;102592.13;5055765;28;19974;-81
2022/03/23 06:26:40;;;;;;;;;;;;;;;6.71;52.79;102601.22;5041529;28;19917;-79
2022/03/23 06:29:06;;;;;;;;;;;;;;;6.63;52.86;102601.06;5050058;28;19929;-78
2022/03/23 06:31:31;;;;;;;;;;;;;;;6.82;53.01;102598.06;5057765;28;19913;-82
2022/03/23 06:33:56;;;;;;;;;;;;;;;6.59;52.56;102601.81;5057050;28;19917;-83
2022/03/23 06:36:22;;;;;;;;;;;;;;;6.78;52.89;102595.38;5054567;28;20045;-75
2022/03/23 06:38:48;;;;;;;;;;;;;;;6.91;53.73;102602.56;5046813;28;19921;-75
2022/03/23 06:41:14;;;;;;;;;;;;;;;6.80;53.05;102606.59;5049553;28;19921;-75
2022/03/23 06:43:39;;;;;;;;;;;;;;;6.93;53.22;102606.06;5043778;28;19920;-81
2022/03/23 06:46:05;;;;;;;;;;;;;;;6.90;53.59;102604.25;5053614;28;20010;-79
2022/03/23 06:48:30;;;;;;;;;;;;;;;6.78;53.89;102613.44;5062445;28;19929;-76
2022/03/23 06:50:56;;;;;;;;;;;;;;;6.97;54.10;102613.91;5055645;28;20308;-76
2022/03/23 06:53:21;;;;;;;;;;;;;;;6.94;53.18;102619.00;5031148;28;19928;-76
2022/03/23 06:55:46;;;;;;;;;;;;;;;6.92;53.99;102617.22;5053769;28;19984;-79
2022/03/23 06:58:12;;;;;;;;;;;;;;;6.88;53.70;102621.44;5055929;28;19928;-81
2022/03/23 07:00:38;;;;;;;;;;;;;;;7.11;54.22;102622.84;5061042;28;19929;-79
2022/03/23 07:03:05;;;;;;;;;;;;;;;7.17;54.96;102629.00;5057465;28;19917;-75
2022/03/23 07:05:30;;;;;;;;;;;;;;;7.25;54.16;102627.47;5042864;28;19928;-75
2022/03/23 07:10:40;;;;;;;;;;;;;;;7.30;53.08;102626.72;5054151;28;19931;-76
2022/03/23 07:13:05;;;;;;;;;;;;;;;7.31;53.56;102622.44;5058228;28;19917;-75
2022/03/23 07:15:30;;;;;;;;;;;;;;;7.23;54.38;102621.41;5046286;28;19975;-75
2022/03/23 07:17:56;;;;;;;;;;;;;;;7.37;54.46;102632.91;5057425;28;19924;-83
2022/03/23 07:20:21;;;;;;;;;;;;;;;7.30;54.24;102626.72;5054290;28;19921;-75
2022/03/23 07:22:46;;;;;;;;;;;;;;;7.34;53.67;102623.38;5066469;28;19924;-75
2022/03/23 07:25:12;;;;;;;;;;;;;;;7.33;54.18;102631.06;5063834;28;19944;-75
2022/03/23 07:27:37;;;;;;;;;;;;;;;7.54;52.84;102631.53;5054871;28;19951;-75
2022/03/23 07:30:04;;;;;;;;;;;;;;;7.52;54.01;102634.06;5054624;28;20331;-81
2022/03/23 07:32:29;;;;;;;;;;;;;;;7.48;54.46;102631.41;5036923;28;19921;-82
2022/03/23 07:34:54;;;;;;;;;;;;;;;7.51;55.28;102628.88;5049741;28;19971;-79
2022/03/23 07:37:20;;;;;;;;;;;;;;;7.46;54.00;102633.09;5047040;28;20388;-79
2022/03/23 07:39:45;;;;;;;;;;;;;;;7.53;54.94;102629.78;5019461;28;20011;-83
2022/03/23 07:42:11;;;;;;;;;;;;;;;7.51;54.62;102631.47;5048597;28;19927;-75
2022/03/23 07:44:36;;;;;;;;;;;;;;;7.58;53.59;102636.78;5056320;28;19979;-75
2022/03/23 07:47:02;;;;;;;;;;;;;;;7.48;54.72;102634.88;5051283;28;19927;-83
2022/03/23 07:49:27;;;;;;;;;;;;;;;7.54;54.41;102627.25;5039081;28;19924;-79
2022/03/23 07:51:53;;;;;;;;;;;;;;;7.61;54.91;102634.28;5041851;28;19920;-79
2022/03/23 07:54:18;;;;;;;;;;;;;;;7.57;54.63;102634.19;5053694;28;19928;-79
2022/03/23 07:56:44;;;;;;;;;;;;;;;7.61;54.53;102633.44;5029682;28;20294;-83
2022/03/23 07:59:09;;;;;;;;;;;;;;;7.60;54.56;102631.66;5055452;28;19966;-82
2022/03/23 08:01:35;;;;;;;;;;;;;;;7.78;53.46;102633.75;5054133;28;19982;-81
2022/03/23 08:04:00;;;;;;;;;;;;;;;7.79;54.51;102635.50;5051422;28;20024;-81
2022/03/23 08:06:26;;;;;;;;;;;;;;;7.71;55.44;102640.50;5050596;28;19952;-76
2022/03/23 08:08:52;;;;;;;;;;;;;;;7.69;56.24;102637.03;5046635;28;19925;-81
2022/03/23 08:11:17;;;;;;;;;;;;;;;7.78;54.81;102639.81;5037903;28;19932;-81
2022/03/23 08:13:42;;;;;;;;;;;;;;;7.85;54.54;102646.84;5050181;28;19921;-81
2022/03/23 08:16:09;;;;;;;;;;;;;;;8.07;53.57;102636.06;5047745;28;19917;-75
2022/03/23 08:18:35;;;;;;;;;;;;;;;8.02;52.20;102637.72;5031108;28;19929;-81
2022/03/23 08:21:00;;;;;;;;;;;;;;;8.08;50.36;102632.66;5046778;28;19944;-75
2022/03/23 08:23:26;;;;;;;;;;;;;;;8.20;51.56;102638.06;5051261;28;20306;-83
2022/03/23 08:25:51;;;;;;;;;;;;;;;8.24;51.78;102638.97;5048057;28;19947;-75
2022/03/23 08:28:17;;;;;;;;;;;;;;;8.24;52.42;102634.66;5055126;28;19994;-80
2022/03/23 08:30:43;;;;;;;;;;;;;;;8.27;52.75;102635.59;5049857;28;20417;-81
2022/03/23 08:33:08;;;;;;;;;;;;;;;8.25;52.84;102639.00;5046991;28;19928;-81
2022/03/23 08:35:34;;;;;;;;;;;;;;;8.37;50.78;102633.22;5061377;28;19924;-83
2022/03/23 08:37:59;;;;;;;;;;;;;;;8.40;51.71;102638.44;5054041;28;19947;-83
2022/03/23 08:40:25;;;;;;;;;;;;;;;8.43;50.28;102632.44;5056065;28;19924;-75
2022/03/23 08:42:50;;;;;;;;;;;;;;;8.44;51.06;102632.47;5055695;28;19921;-80
2022/03/23 08:45:16;;;;;;;;;;;;;;;8.55;50.47;102627.47;5033286;28;19967;-81
2022/03/23 08:47:42;;;;;;;;;;;;;;;8.63;49.93;102623.28;5050886;28;20019;-76
2022/03/23 08:50:09;;;;;;;;;;;;;;;8.66;50.41;102628.50;5054401;28;19935;-79
2022/03/23 08:52:35;;;;;;;;;;;;;;;8.64;50.95;102632.81;5052859;28;19925;-79
2022/03/23 08:55:02;;;;;;;;;;;;;;;8.62;50.90;102627.59;5053181;28;19928;-79
2022/03/23 08:57:27;;;;;;;;;;;;;;;8.58;52.77;102624.94;5053529;28;20343;-81
2022/03/23 08:59:52;;;;;;;;;;;;;;;8.66;51.96;102631.97;5046269;28;19917;-79
2022/03/23 09:02:18;;;;;;;;;;;;;;;8.61;52.09;102624.97;5056891;28;19929;-80
2022/03/23 09:04:43;;;;;;;;;;;;;;;8.74;51.46;102626.94;5052175;28;19948;-81
2022/03/23 09:07:08;;;;;;;;;;;;;;;8.76;51.43;102625.22;5051978;28;20368;-79
2022/03/23 09:09:34;;;;;;;;;;;;;;;8.78;50.82;102621.81;5050266;28;19979;-79
2022/03/23 09:11:59;;;;;;;;;;;;;;;8.84;51.11;102625.34;5052147;28;19978;-75
2022/03/23 09:14:24;;;;;;;;;;;;;;;8.88;51.01;102625.44;5047954;28;20441;-83
2022/03/23 09:16:50;;;;;;;;;;;;;;;8.91;50.37;102620.28;5060433;28;20284;-81
2022/03/23 09:19:19;;;;;;;;;;;;;;;8.98;51.47;102616.09;5035632;28;19917;-83
2022/03/23 09:21:46;;;;;;;;;;;;;;;8.95;51.93;102626.41;5054142;28;19999;-83
2022/03/23 09:24:11;;;;;;;;;;;;;;;8.98;51.95;102627.28;5049377;28;19921;-79
2022/03/23 09:26:36;;;;;;;;;;;;;;;9.00;51.04;102620.44;5037928;28;20006;-79
2022/03/23 09:29:01;;;;;;;;;;;;;;;9.23;48.99;102619.03;5061968;28;19936;-80
2022/03/23 09:31:27;;;;;;;;;;;;;;;9.29;48.76;102619.13;5058664;28;19917;-80
2022/03/23 09:33:53;;;;;;;;;;;;;;;9.28;49.75;102614.78;5054149;28;19951;-81
2022/03/23 09:39:03;;;;;;;;;;;;;;;9.28;51.69;102614.78;5054735;28;19986;-75
2022/03/23 09:41:31;;;;;;;;;;;;;;;9.32;50.71;102615.69;5055580;28;20389;-75
2022/03/23 09:43:58;;;;;;;;;;;;;;;9.47;48.43;102607.25;5044111;28;20393;-76
2022/03/23 09:46:23;;;;;;;;;;;;;;;9.48;48.93;102604.69;5052240;28;19912;-83
2022/03/23 09:48:50;;;;;;;;;;;;;;;9.44;50.90;102615.00;5057915;28;20402;-83
2022/03/23 09:51:16;;;;;;;;;;;;;;;9.52;49.73;102613.34;5051517;28;19917;-83
2022/03/23 09:53:42;;;;;;;;;;;;;;;9.49;50.29;102609.00;5052418;28;19974;-83
2022/03/23 09:56:07;;;;;;;;;;;;;;;9.56;49.49;102602.16;5050266;28;19924;-79
2022/03/23 09:58:32;;;;;;;;;;;;;;;9.58;48.85;102608.25;5050057;28;20326;-75
2022/03/23 10:00:58;;;;;;;;;;;;;;;9.68;47.85;102599.72;5055303;28;20345;-75
2022/03/23 10:03:38;;;;;;;;;;;;;;;9.87;46.27;102597.34;5052225;28;19925;-75
2022/03/23 10:06:28;;;;;;;;;;;;;;;9.80;47.63;102599.88;5053629;28;20011;-75
2022/03/23 10:09:07;;;;;;;;;;;;;;;9.80;47.16;102597.28;5051624;28;19924;-75
2022/03/23 10:11:51;;;;;;;;;;;;;;;9.87;47.31;102601.66;5049037;28;20296;-82
2022/03/23 10:14:35;;;;;;;;;;;;;;;9.92;47.13;102597.44;5045515;28;19940;-82
2022/03/23 10:17:01;;;;;;;;;;;;;;;9.91;48.36;102595.69;5053724;28;20310;-80
2022/03/23 10:19:26;;;;;;;;;;;;;;;9.89;48.65;102595.69;5051454;28;19968;-76
2022/03/23 10:21:52;;;;;;;;;;;;;;;10.06;46.77;102601.06;5030904;28;20312;-75
2022/03/23 10:24:17;;;;;;;;;;;;;;;10.08;46.39;102599.31;5049674;28;19929;-82
2022/03/23 10:26:43;;;;;;;;;;;;;;;10.11;46.30;102588.09;5046479;28;19996;-81
2022/03/23 10:29:22;;;;;;;;;;;;;;;10.12;46.61;102597.63;5053400;28;19925;-81
2022/03/23 10:31:58;;;;;;;;;;;;;;;10.18;46.49;102593.38;5046993;28;19974;-75
2022/03/23 10:34:23;;;;;;;;;;;;;;;10.19;45.22;102587.34;5049987;28;19928;-79
2022/03/23 10:36:51;;;;;;;;;;;;;;;10.25;44.83;102582.22;5052497;28;19925;-82
2022/03/23 10:39:18;;;;;;;;;;;;;;;10.25;45.03;102579.63;5054831;28;20007;-82
2022/03/23 10:41:55;;;;;;;;;;;;;;;10.30;44.58;102583.13;5051428;28;19921;-82
2022/03/23 10:44:20;;;;;;;;;;;;;;;10.31;45.35;102582.25;5046989;28;19924;-79
2022/03/23 10:46:48;;;;;;;;;;;;;;;10.32;46.29;102577.91;5058785;28;20348;-80
2022/03/23 10:49:14;;;;;;;;;;;;;;;10.36;47.30;102584.88;5055827;28;19944;-79
2022/03/23 10:51:41;;;;;;;;;;;;;;;10.44;46.29;102578.91;5052763;28;19925;-79
2022/03/23 10:54:21;;;;;;;;;;;;;;;10.51;45.71;102584.16;5040421;28;19921;-76
2022/03/23 10:56:46;;;;;;;;;;;;;;;10.57;44.80;102571.19;5053451;28;20022;-79
2022/03/23 10:59:34;;;;;;;;;;;;;;;10.61;44.48;102573.81;5021560;28;20015;-79
2022/03/23 11:02:04;;;;;;;;;;;;;;;10.66;44.92;102576.47;5045120;28;19921;-83
2022/03/23 11:04:39;;;;;;;;;;;;;;;10.66;43.90;102573.88;5051267;28;20016;-82
2022/03/23 11:07:04;;;;;;;;;;;;;;;10.64;44.96;102573.84;5049223;28;20289;-81
2022/03/23 11:18:11;;;;;;;;;;;;;;;10.83;43.34;102554.06;5050108;28;20808;-81
2022/03/23 11:20:39;;;;;;;;;;;;;;;10.83;44.32;102564.47;5046869;28;20374;-83
2022/03/23 11:23:18;;;;;;;;;;;;;;;10.88;43.15;102557.53;5048903;28;20044;-82
2022/03/23 11:25:44;;;;;;;;;;;;;;;11.03;42.57;102557.63;5051984;28;19920;-83
2022/03/23 11:28:10;;;;;;;;;;;;;;;10.96;43.18;102561.97;5060056;28;20007;-76
2022/03/23 11:30:37;;;;;;;;;;;;;;;11.06;42.62;102551.63;5053673;28;19928;-75
2022/03/23 11:33:03;;;;;;;;;;;;;;;11.08;43.19;102550.75;5050912;28;19921;-75
2022/03/23 11:35:29;;;;;;;;;;;;;;;11.03;44.13;102545.50;5054026;28;19916;-81
2022/03/23 11:37:55;;;;;;;;;;;;;;;11.00;44.46;102544.63;5039863;28;20384;-82
2022/03/23 11:40:21;;;;;;;;;;;;;;;11.16;42.37;102540.38;5043139;28;19925;-81
2022/03/23 11:42:46;;;;;;;;;;;;;;;11.04;43.32;102541.19;5052919;28;19927;-81
2022/03/23 11:45:13;;;;;;;;;;;;;;;11.18;41.59;102536.91;5039151;28;19920;-81
2022/03/23 11:47:51;;;;;;;;;;;;;;;11.09;43.78;102536.88;5055853;28;19921;-81
2022/03/23 11:50:16;;;;;;;;;;;;;;;11.10;43.94;102541.22;5056564;28;19981;-81
2022/03/23 11:52:53;;;;;;;;;;;;;;;11.07;42.88;102530.78;5056797;28;20048;-83
2022/03/23 11:58:04;;;;;;;;;;;;;;;11.20;41.92;102526.53;5051186;28;19928;-80
2022/03/23 12:00:40;;;;;;;;;;;;;;;11.10;43.78;102529.94;5049755;28;19920;-79
2022/03/23 12:03:06;;;;;;;;;;;;;;;11.17;43.70;102530.00;5046055;28;19917;-79
2022/03/23 12:05:35;;;;;;;;;;;;;;;11.15;43.31;102526.50;5049594;28;19946;-83
2022/03/23 12:08:00;;;;;;;;;;;;;;;11.17;42.82;102517.00;5050841;28;19948;-83
2022/03/23 12:10:28;;;;;;;;;;;;;;;11.18;43.27;102517.81;5048540;28;19956;-82
2022/03/23 12:12:54;;;;;;;;;;;;;;;11.16;44.18;102519.56;5054335;28;19925;-76
2022/03/23 12:15:19;;;;;;;;;;;;;;;11.26;43.23;102511.81;5045664;28;19921;-76
2022/03/23 12:17:54;;;;;;;;;;;;;;;11.21;43.84;102513.50;5050092;28;19963;-79
2022/03/23 12:20:26;;;;;;;;;;;;;;;11.17;44.40;102511.78;5041072;28;19920;-79
2022/03/23 12:22:54;;;;;;;;;;;;;;;11.14;43.87;102505.69;5050252;28;19927;-79
2022/03/23 12:25:24;;;;;;;;;;;;;;;11.35;41.91;102509.28;5055003;28;19917;-79
2022/03/23 12:27:54;;;;;;;;;;;;;;;11.39;41.15;102500.59;5055118;28;19932;-79
2022/03/23 12:30:25;;;;;;;;;;;;;;;11.54;40.16;102497.19;5057946;28;20201;-79
2022/03/23 12:32:50;;;;;;;;;;;;;;;11.45;40.43;102492.81;5047102;28;19924;-80
2022/03/23 12:35:16;;;;;;;;;;;;;;;11.66;37.53;102486.78;5043977;28;19967;-80
2022/03/23 12:37:42;;;;;;;;;;;;;;;11.93;36.46;102494.66;5044601;28;19920;-83
2022/03/23 12:40:12;;;;;;;;;;;;;;;11.70;37.23;102485.94;5052214;28;19917;-81
2022/03/23 12:42:56;;;;;;;;;;;;;;;11.98;36.17;102479.00;5066038;28;20641;-76
2022/03/23 12:45:22;;;;;;;;;;;;;;;11.91;35.54;102475.56;5050604;28;19943;-83
2022/03/23 12:47:55;;;;;;;;;;;;;;;11.74;36.47;102469.44;5047601;28;20337;-83
2022/03/23 12:59:11;;;;;;;;;;;;;;;11.85;35.73;102459.94;5048851;28;19927;-79
2022/03/23 13:01:38;;;;;;;;;;;;;;;11.98;36.08;102456.44;5045893;28;19959;-79
2022/03/23 13:04:04;;;;;;;;;;;;;;;12.05;35.59;102455.59;5053584;28;19920;-80
2022/03/23 13:06:37;;;;;;;;;;;;;;;12.06;36.63;102459.06;5052177;28;19944;-79
2022/03/23 13:09:03;;;;;;;;;;;;;;;12.11;33.84;102452.97;5051941;28;20627;-79
2022/03/23 13:11:32;;;;;;;;;;;;;;;12.52;31.93;102446.84;5052070;28;19921;-76
2022/03/23 13:13:58;;;;;;;;;;;;;;;12.13;34.74;102449.53;5050075;28;20388;-83
2022/03/23 13:16:24;;;;;;;;;;;;;;;12.30;32.44;102446.03;5047070;28;19975;-81
2022/03/23 13:18:52;;;;;;;;;;;;;;;12.23;33.21;102441.69;5051583;28;20289;-81